createdAt,value
2018-10-11T00:00:47.321Z,12.9
2018-10-11T00:03:47.243Z,12.8
2018-10-11T00:06:47.150Z,13
2018-10-11T00:09:46.928Z,12.4
2018-10-11T00:12:47.409Z,12.2
2018-10-11T00:15:47.197Z,12.3
2018-10-11T00:18:47.012Z,11.9
2018-10-11T00:21:47.204Z,12.3
2018-10-11T00:24:47.141Z,12.1
2018-10-11T00:27:46.998Z,11.7
2018-10-11T00:30:48.745Z,11.6
2018-10-11T00:33:47.115Z,11.5
2018-10-11T00:36:47.034Z,11.6
2018-10-11T00:39:47.047Z,11.6
2018-10-11T00:42:47.448Z,11
2018-10-11T00:45:47.013Z,11.4
2018-10-11T00:48:46.818Z,11.3
2018-10-11T00:51:47.292Z,11.5
2018-10-11T00:54:47.034Z,10.9
2018-10-11T00:57:46.963Z,11
2018-10-11T01:00:47.097Z,10.6
2018-10-11T01:03:46.985Z,10.6
2018-10-11T01:06:46.931Z,10.3
2018-10-11T01:09:47.362Z,10.1
2018-10-11T01:12:47.037Z,10.4
2018-10-11T01:15:47.852Z,10.5
2018-10-11T01:18:46.971Z,10.4
2018-10-11T01:21:46.953Z,10.1
2018-10-11T01:24:46.933Z,10
2018-10-11T01:27:47.202Z,10.1
2018-10-11T01:30:46.898Z,10.6
2018-10-11T01:33:46.978Z,10.3
2018-10-11T01:36:46.981Z,10.2
2018-10-11T01:39:46.917Z,10.4
2018-10-11T01:42:47.079Z,9.9
2018-10-11T01:45:47.002Z,10
2018-10-11T01:48:47.095Z,9.7
2018-10-11T01:51:47.111Z,9.9
2018-10-11T01:54:47.039Z,9.9
2018-10-11T01:57:46.923Z,10
2018-10-11T02:00:46.979Z,9.8
2018-10-11T02:03:47.018Z,9.4
2018-10-11T02:06:47.146Z,9.1
2018-10-11T02:09:47.055Z,9.3
2018-10-11T02:12:47.338Z,9.1
2018-10-11T02:15:47.044Z,9
2018-10-11T02:18:47.145Z,9.2
2018-10-11T02:21:47.004Z,9.4
2018-10-11T02:24:47.000Z,9.2
2018-10-11T02:27:47.142Z,9.6
2018-10-11T02:30:47.079Z,9.6
2018-10-11T02:33:46.898Z,9.8
2018-10-11T02:36:47.322Z,9.3
2018-10-11T02:39:47.019Z,9.1
2018-10-11T02:42:46.939Z,8.8
2018-10-11T02:45:47.010Z,8.8
2018-10-11T02:48:46.984Z,9
2018-10-11T02:51:47.206Z,8.8
2018-10-11T02:54:46.824Z,8.7
2018-10-11T02:57:46.984Z,8.7
2018-10-11T03:00:47.306Z,8.7
2018-10-11T03:03:47.027Z,8.7
2018-10-11T03:06:46.900Z,9.1
2018-10-11T03:09:46.981Z,8.9
2018-10-11T03:12:47.018Z,8.8
2018-10-11T03:15:47.161Z,8.8
2018-10-11T03:18:46.879Z,8.9
2018-10-11T03:21:46.854Z,9.2
2018-10-11T03:24:47.143Z,9
2018-10-11T03:27:47.280Z,8.5
2018-10-11T03:30:46.894Z,8.6
2018-10-11T03:33:46.901Z,8.3
2018-10-11T03:36:47.144Z,8.3
2018-10-11T03:39:47.276Z,8.4
2018-10-11T03:42:46.846Z,8.2
2018-10-11T03:45:46.983Z,8.3
2018-10-11T03:48:47.218Z,8.3
2018-10-11T03:51:47.003Z,8.3
2018-10-11T03:54:47.004Z,8.1
2018-10-11T03:57:47.167Z,8.1
2018-10-11T04:00:47.188Z,8.1
2018-10-11T04:03:47.162Z,8.1
2018-10-11T04:06:46.921Z,8.1
2018-10-11T04:09:47.152Z,8.4
2018-10-11T04:12:47.076Z,8.3
2018-10-11T04:15:47.273Z,8.2
2018-10-11T04:18:47.062Z,8.2
2018-10-11T04:21:47.036Z,8.2
2018-10-11T04:24:47.001Z,8.3
2018-10-11T04:27:47.329Z,8.3
2018-10-11T04:30:47.229Z,8.1
2018-10-11T04:33:46.955Z,8.3
2018-10-11T04:36:47.100Z,8.1
2018-10-11T04:39:46.841Z,8.2
2018-10-11T04:42:48.705Z,8
2018-10-11T04:45:47.009Z,7.9
2018-10-11T04:48:46.860Z,8.3
2018-10-11T04:51:46.970Z,8.2
2018-10-11T04:54:47.002Z,7.9
2018-10-11T04:57:47.094Z,8
2018-10-11T05:00:46.965Z,8
2018-10-11T05:03:47.081Z,8.2
2018-10-11T05:06:47.250Z,8.2
2018-10-11T05:09:47.029Z,8.1
2018-10-11T05:12:47.194Z,8
2018-10-11T05:15:47.306Z,8.3
2018-10-11T05:18:47.197Z,8.1
2018-10-11T05:21:47.293Z,8.3
2018-10-11T05:24:46.937Z,8.3
2018-10-11T05:27:46.847Z,8.2
2018-10-11T05:30:47.127Z,8.1
2018-10-11T05:33:47.886Z,8.1
2018-10-11T05:36:46.859Z,8
2018-10-11T05:39:47.162Z,8
2018-10-11T05:42:46.886Z,7.8
2018-10-11T05:45:47.353Z,7.8
2018-10-11T05:48:46.881Z,7.7
2018-10-11T05:51:46.762Z,7.8
2018-10-11T05:54:46.929Z,7.7
2018-10-11T05:57:46.850Z,7.8
2018-10-11T06:00:47.029Z,8
2018-10-11T06:03:46.989Z,7.8
2018-10-11T06:06:46.959Z,7.8
2018-10-11T06:09:46.921Z,7.8
2018-10-11T06:12:46.949Z,7.9
2018-10-11T06:15:46.800Z,7.9
2018-10-11T06:18:47.005Z,7.9
2018-10-11T06:21:46.917Z,7.9
2018-10-11T06:24:47.918Z,8
2018-10-11T06:27:47.117Z,7.6
2018-10-11T06:30:47.225Z,7.6
2018-10-11T06:33:47.306Z,7.7
2018-10-11T06:36:46.977Z,7.8
2018-10-11T06:39:46.829Z,7.7
2018-10-11T06:42:48.831Z,7.7
2018-10-11T06:45:47.033Z,7.5
2018-10-11T06:48:46.773Z,7.6
2018-10-11T06:51:46.903Z,7.6
2018-10-11T06:54:47.042Z,7.8
2018-10-11T06:57:47.332Z,7.8
2018-10-11T07:00:46.982Z,7.7
2018-10-11T07:03:46.737Z,7.7
2018-10-11T07:06:47.007Z,8
2018-10-11T07:09:47.004Z,7.7
2018-10-11T07:12:46.901Z,11.7
2018-10-11T07:15:47.007Z,13.6
2018-10-11T07:18:46.959Z,14.9
2018-10-11T07:21:46.991Z,26.2
2018-10-11T07:24:47.023Z,25.3
2018-10-11T07:40:50.409Z,21.7
2018-10-11T07:43:49.474Z,22.4
2018-10-11T07:46:49.710Z,20.2
2018-10-11T07:49:49.423Z,20.6
2018-10-11T07:55:49.598Z,19.3
2018-10-11T07:58:49.326Z,19
2018-10-11T08:04:49.595Z,18.4
2018-10-11T08:10:52.640Z,16.1
2018-10-11T08:13:49.536Z,16.8
2018-10-11T08:16:52.820Z,16.5
2018-10-11T08:19:51.288Z,15.5
2018-10-11T08:25:56.756Z,15
2018-10-11T08:28:49.709Z,14.5
2018-10-11T08:31:49.503Z,13.1
2018-10-11T08:34:50.358Z,12.7
2018-10-11T08:40:49.428Z,12.5
2018-10-11T08:43:50.384Z,13.4
2018-10-11T08:46:49.821Z,13.5
2018-10-11T08:49:49.470Z,12.9
2018-10-11T08:58:49.928Z,11.8
2018-10-11T09:01:50.261Z,11.7
2018-10-11T09:04:49.589Z,11.6
2018-10-11T09:07:49.956Z,11.7
2018-10-11T09:10:51.412Z,11.6
2018-10-11T09:13:50.215Z,11.5
2018-10-11T09:19:49.987Z,11.2
2018-10-11T09:25:49.804Z,11.1
2018-10-11T09:28:49.800Z,10.9
2018-10-11T09:37:49.790Z,11
2018-10-11T09:40:49.564Z,11.1
2018-10-11T09:43:49.801Z,10.9
2018-10-11T09:46:49.511Z,10.7
2018-10-11T09:52:49.400Z,11
2018-10-11T09:55:49.554Z,10.8
2018-10-11T09:58:49.563Z,10.7
2018-10-11T10:01:50.508Z,10.4
2018-10-11T10:04:49.467Z,10.4
2018-10-11T10:10:49.846Z,10.3
2018-10-11T10:13:49.727Z,9.9
2018-10-11T10:16:49.421Z,10.2
2018-10-11T10:19:49.492Z,10.2
2018-10-11T10:22:49.466Z,9.9
2018-10-11T10:28:49.540Z,10.4
2018-10-11T10:31:49.407Z,10.6
2018-10-11T10:34:49.470Z,10.2
2018-10-11T10:37:50.333Z,10
2018-10-11T10:40:49.831Z,9.7
2018-10-11T10:46:49.444Z,10.5
2018-10-11T10:49:49.366Z,10.6
2018-10-11T10:52:49.528Z,10.5
2018-10-11T11:01:49.453Z,9.6
2018-10-11T11:04:49.800Z,9.4
2018-10-11T11:07:50.157Z,9.3
2018-10-11T11:13:49.483Z,9.2
2018-10-11T11:16:49.553Z,9.1
2018-10-11T11:19:49.524Z,9.1
2018-10-11T11:25:49.749Z,9
2018-10-11T11:34:49.513Z,8.9
2018-10-11T11:37:49.736Z,9.4
2018-10-11T11:43:49.673Z,8.9
2018-10-11T11:49:49.536Z,8.8
2018-10-11T11:52:49.553Z,8.5
2018-10-11T11:55:49.502Z,8.6
2018-10-11T12:04:49.269Z,8.7
2018-10-11T12:07:49.961Z,8.5
2018-10-11T12:10:50.396Z,8.4
2018-10-11T12:13:49.784Z,8.4
2018-10-11T12:16:49.480Z,8.4
2018-10-11T12:28:50.775Z,8.1
2018-10-11T12:31:49.519Z,8.1
2018-10-11T12:34:49.589Z,8.2
2018-10-11T12:37:51.422Z,8.1
2018-10-11T12:43:49.471Z,7.8
2018-10-11T12:49:50.083Z,7.8
2018-10-11T12:52:49.564Z,7.6
2018-10-11T12:58:49.473Z,7.6
2018-10-11T13:01:49.282Z,7.6
2018-10-11T13:04:49.553Z,7.5
2018-10-11T13:07:49.471Z,7.6
2018-10-11T13:10:49.389Z,7.8
2018-10-11T13:13:53.313Z,7.6
2018-10-11T13:16:49.430Z,7.5
2018-10-11T13:22:50.256Z,7.4
2018-10-11T13:28:51.377Z,7.7
2018-10-11T13:31:49.476Z,7.7
2018-10-11T13:37:49.350Z,7.4
2018-10-11T13:49:49.723Z,7.3
2018-10-11T13:58:50.610Z,7.1
2018-10-11T14:04:49.415Z,7.1
2018-10-11T14:10:49.604Z,7.1
2018-10-11T14:13:49.250Z,7.1
2018-10-11T14:16:49.349Z,7.1
2018-10-11T14:19:49.769Z,6.8
2018-10-11T14:25:49.482Z,6.7
2018-10-11T14:31:49.174Z,7.1
2018-10-11T14:37:49.551Z,6.8
2018-10-11T14:40:49.461Z,6.7
2018-10-11T14:43:49.872Z,6.7
2018-10-11T14:49:49.690Z,6.7
2018-10-11T14:52:49.547Z,6.7
2018-10-11T14:58:49.668Z,6.6
2018-10-11T15:01:49.893Z,6.6
2018-10-11T15:04:50.715Z,6.6
2018-10-11T15:07:49.722Z,6.6
2018-10-11T15:10:53.080Z,6.6
2018-10-11T15:16:49.773Z,6.5
2018-10-11T15:19:49.371Z,6.3
2018-10-11T15:22:49.319Z,6.3
2018-10-11T15:25:49.191Z,6.3
2018-10-11T15:28:49.227Z,6.5
2018-10-11T15:31:49.408Z,6.7
2018-10-11T15:37:49.474Z,6.4
2018-10-11T15:40:49.281Z,6.3
2018-10-11T15:43:49.145Z,6.4
2018-10-11T15:46:51.352Z,6.3
2018-10-11T15:52:49.261Z,6.2
2018-10-11T15:55:49.333Z,6.3
2018-10-11T16:04:49.184Z,6.1
2018-10-11T16:07:49.423Z,6.2
2018-10-11T16:13:49.327Z,6.1
2018-10-11T16:16:49.349Z,6
2018-10-11T16:22:49.330Z,6
2018-10-11T16:25:49.288Z,6.1
2018-10-11T16:28:49.333Z,6.1
2018-10-11T16:31:49.397Z,6.3
2018-10-11T16:40:49.355Z,6.1
2018-10-11T16:43:49.335Z,6
2018-10-11T16:46:49.377Z,6
2018-10-11T16:52:50.198Z,6
2018-10-11T16:55:49.496Z,6
2018-10-11T16:58:49.682Z,6.1
2018-10-11T17:01:49.335Z,6.1
2018-10-11T17:07:50.290Z,6
2018-10-11T17:10:49.399Z,6.1
2018-10-11T17:13:49.413Z,6.2
2018-10-11T17:16:49.805Z,6.5
2018-10-11T17:22:49.221Z,6.7
2018-10-11T17:25:49.349Z,6.2
2018-10-11T17:28:49.457Z,6.2
2018-10-11T17:31:49.428Z,6.1
2018-10-11T17:37:49.345Z,5.9
2018-10-11T17:40:49.552Z,6.1
2018-10-11T17:43:50.336Z,6.3
2018-10-11T17:46:49.417Z,6.3
2018-10-11T17:52:49.196Z,6.7
2018-10-11T17:58:49.390Z,6.4
2018-10-11T18:01:49.500Z,6.8
2018-10-11T18:07:49.267Z,6.1
2018-10-11T18:13:49.336Z,5.9
2018-10-11T18:16:49.338Z,5.9
2018-10-11T18:19:49.740Z,6.6
2018-10-11T18:22:49.296Z,6.2
2018-10-11T18:25:49.676Z,6.4
2018-10-11T18:31:49.319Z,6.9
2018-10-11T18:34:49.215Z,8.4
2018-10-11T18:37:49.470Z,10.5
2018-10-11T18:43:49.801Z,11.8
2018-10-11T18:52:49.345Z,11.5
2018-10-11T18:55:49.370Z,8.7
2018-10-11T18:58:49.605Z,8.4
2018-10-11T19:01:49.428Z,8.4
2018-10-11T19:04:49.208Z,7.1
2018-10-11T19:07:49.323Z,7
2018-10-11T19:10:49.318Z,7.1
2018-10-11T19:13:49.275Z,8.7
2018-10-11T19:16:49.179Z,7.8
2018-10-11T19:19:49.370Z,7
2018-10-11T19:22:49.259Z,7.3
2018-10-11T19:34:49.433Z,6.2
2018-10-11T19:37:49.308Z,7.7
2018-10-11T19:40:49.637Z,7
2018-10-11T19:46:49.355Z,8.1
2018-10-11T19:49:49.913Z,10.7
2018-10-11T19:52:49.098Z,9.2
2018-10-11T20:04:32.170Z,9.5
2018-10-11T20:07:32.766Z,10
2018-10-11T20:10:32.215Z,8.3
2018-10-11T20:13:32.547Z,7.3
2018-10-11T20:16:32.581Z,8.3
2018-10-11T20:19:32.273Z,7.4
2018-10-11T20:22:32.436Z,6.9
2018-10-11T20:25:32.516Z,8.3
2018-10-11T20:28:32.323Z,6.7
2018-10-11T20:31:32.210Z,6.4
2018-10-11T20:34:32.220Z,6.3
2018-10-11T20:37:32.355Z,7.7
2018-10-11T20:40:33.261Z,7.1
2018-10-11T20:43:34.461Z,7.6
2018-10-11T20:46:32.337Z,6.5
2018-10-11T20:49:32.431Z,7.3
2018-10-11T20:52:32.285Z,7
2018-10-11T20:55:32.177Z,6.6
2018-10-11T20:58:32.520Z,6.1
2018-10-11T21:01:32.620Z,5.5
2018-10-11T21:04:32.354Z,5.6
2018-10-11T21:07:32.120Z,6.1
2018-10-11T21:10:32.381Z,5.9
2018-10-11T21:13:32.256Z,5.7
2018-10-11T21:16:32.482Z,5.6
2018-10-11T21:19:32.233Z,5.8
2018-10-11T21:22:32.480Z,5.9
2018-10-11T21:25:32.204Z,6
2018-10-11T21:28:32.318Z,5.8
2018-10-11T21:31:32.517Z,5.4
2018-10-11T21:34:32.979Z,5.2
2018-10-11T21:37:32.320Z,5.2
2018-10-11T21:40:32.570Z,5.6
2018-10-11T21:43:32.265Z,5.5
2018-10-11T21:46:32.336Z,5.3
2018-10-11T21:49:32.462Z,5
2018-10-11T21:52:32.843Z,5
2018-10-11T21:55:32.334Z,5.6
2018-10-11T21:58:32.723Z,5.5
2018-10-11T22:01:32.211Z,5.2
2018-10-11T22:04:32.354Z,5.1
2018-10-11T22:07:32.217Z,5
2018-10-11T22:10:32.167Z,4.9
2018-10-11T22:13:32.276Z,4.7
2018-10-11T22:16:32.338Z,5.1
2018-10-11T22:19:32.437Z,4.8
2018-10-11T22:22:32.093Z,4.8
2018-10-11T22:25:32.293Z,4.6
2018-10-11T22:28:32.241Z,4.7
2018-10-11T22:31:32.510Z,4.8
2018-10-11T22:34:32.288Z,5.1
2018-10-11T22:37:32.791Z,5
2018-10-11T22:40:32.652Z,4.8
2018-10-11T22:43:32.526Z,4.8
2018-10-11T22:46:32.253Z,4.7
2018-10-11T22:49:32.567Z,4.6
2018-10-11T22:52:32.413Z,4.5
2018-10-11T22:55:32.328Z,4.7
2018-10-11T22:58:32.243Z,4.6
2018-10-11T23:01:32.295Z,4.6
2018-10-11T23:04:32.643Z,4.6
2018-10-11T23:07:32.632Z,4.7
2018-10-11T23:10:32.403Z,4.6
2018-10-11T23:13:32.370Z,4.7
2018-10-11T23:16:33.250Z,4.5
2018-10-11T23:19:32.374Z,4.5
2018-10-11T23:22:32.377Z,4.7
2018-10-11T23:25:32.218Z,4.6
2018-10-11T23:28:32.136Z,4.8
2018-10-11T23:31:32.173Z,4.7
2018-10-11T23:34:32.297Z,4.6
2018-10-11T23:37:32.316Z,4.6
2018-10-11T23:40:32.174Z,4.7
2018-10-11T23:43:32.331Z,4.6
2018-10-11T23:46:32.142Z,4.8
2018-10-11T23:49:32.271Z,4.6
2018-10-11T23:52:32.236Z,4.6
2018-10-11T23:55:32.135Z,4.5
2018-10-11T23:58:32.292Z,4.5
